City of Sunrise, Florida
Current Conditions -  °F | °C
As of 11:53 AM on Thursday 23 Oct 2014 (Local Time) from KFXE Reporting Station
Light Rain Light Rain  
Wind Chill: 77°   Ceiling: 2100
Heat Index: 78°   Visibility: 10mi
Dew Point: 72°   Wind: 9mph
Humidity: 84%   Direction: 50°NE
Pressure: 29.94"   Gusts: NA
Location:  26.1495°N, 80.2263°W
Report Text: KFXE 231553Z 05008KT 10SM -RA SCT015 BKN021 OVC040 25/22 A2994 RMK AO2 SLP141 P0000 T02500222
Loading
Personal Weather Stations






























Interactive Weather Map
Tropical Storm Tracking
New forecast layout! Learn more

10-Day Weather Forecast

Advertisements
Track Severe Weather on mobile